X  Zavřít Letištní data METAR     LKTB Brno-Tuřany Airport
Teplota
9°C Teplota
3°C Rosný bod
66% Vlhkost



Vítr
3 KM/H
2 MPH
1 M/S
2 KTS



Klid
S
Aktuální stav

Jasno Jasno
Tlak 1033.92 (hPa) - 30.53 (inHg)
Viditelnost 6.2 (mil) - 10 (km)
Letiště
Kód letiště LKTB

Umístění: Brno-Tuřany Airport
Vzdálenost: 25 (km)

Metar:
LKTB 021330Z VRB02KT CAVOK 09/03 Q1034 NOSIG

Čas: 02-03-2021 14:30 CET